createdAt,value
2022-11-05T00:01:19.463Z,95334.09
2022-11-05T00:04:06.256Z,95333.99
2022-11-05T00:06:52.952Z,95335.75
2022-11-05T00:09:29.860Z,95333.91
2022-11-05T00:12:22.171Z,95330.15
2022-11-05T00:15:08.705Z,95328.69
2022-11-05T00:17:36.928Z,95326.45
2022-11-05T00:20:06.506Z,95329.32
2022-11-05T00:22:53.062Z,95335.25
2022-11-05T00:25:22.157Z,95336.71
2022-11-05T00:27:52.340Z,95336.65
2022-11-05T00:30:24.286Z,95336.03
2022-11-05T00:32:53.368Z,95332.15
2022-11-05T00:35:22.602Z,95333.57
2022-11-05T00:37:53.573Z,95335.17
2022-11-05T00:40:21.423Z,95334.88
2022-11-05T00:43:08.286Z,95334.47
2022-11-05T00:45:37.829Z,95340.98
2022-11-05T00:48:24.749Z,95343.15
2022-11-05T00:50:52.705Z,95347.29
2022-11-05T00:53:20.695Z,95344.05
2022-11-05T00:55:48.599Z,95340.42
2022-11-05T00:58:19.055Z,95338.05
2022-11-05T01:00:52.635Z,95340.52
2022-11-05T01:03:24.469Z,95338.52
2022-11-05T01:05:55.912Z,95336.63
2022-11-05T01:08:26.805Z,95332.64
2022-11-05T01:10:57.779Z,95333.54
2022-11-05T01:13:30.257Z,95334.45
2022-11-05T01:15:58.154Z,95331.41
2022-11-05T01:18:26.066Z,95331.73
2022-11-05T01:20:54.027Z,95325.09
2022-11-05T01:23:22.212Z,95320.59
2022-11-05T01:25:50.367Z,95314.52
2022-11-05T01:28:18.309Z,95313.39
2022-11-05T01:30:46.214Z,95316.60
2022-11-05T01:33:14.347Z,95313.85
2022-11-05T01:35:42.662Z,95310.42
2022-11-05T01:38:10.641Z,95312.20
2022-11-05T01:40:42.632Z,95314.73
2022-11-05T01:43:16.070Z,95313.59
2022-11-05T01:45:47.895Z,95311.12
2022-11-05T01:48:23.976Z,95301.70
2022-11-05T01:51:01.340Z,95298.98
2022-11-05T01:53:49.926Z,95305.30
2022-11-05T01:56:24.901Z,95311.56
2022-11-05T01:58:57.956Z,95313.79
2022-11-05T02:01:26.128Z,95315.84
2022-11-05T02:03:59.801Z,95316.30
2022-11-05T02:06:30.417Z,95317.55
2022-11-05T02:09:13.405Z,95312.29
2022-11-05T02:11:41.426Z,95313.72
2022-11-05T02:14:09.453Z,95311.27
2022-11-05T02:16:40.431Z,95309.08
2022-11-05T02:19:23.453Z,95304.06
2022-11-05T02:22:08.994Z,95301.58
2022-11-05T02:24:45.927Z,95308.94
2022-11-05T02:27:29.524Z,95318.56
2022-11-05T02:30:03.654Z,95323.91
2022-11-05T02:32:40.862Z,95321.40
2022-11-05T02:35:35.206Z,95321.91
2022-11-05T02:38:07.330Z,95320.96
2022-11-05T02:40:54.185Z,95318.95
2022-11-05T02:43:51.777Z,95316.14
2022-11-05T02:46:29.315Z,95318.04
2022-11-05T02:49:13.388Z,95318.90
2022-11-05T02:51:55.607Z,95308.52
2022-11-05T02:54:35.359Z,95305.30
2022-11-05T02:57:04.938Z,95310.11
2022-11-05T02:59:32.854Z,95310.04
2022-11-05T03:02:26.690Z,95305.93
2022-11-05T03:04:54.890Z,95300.89
2022-11-05T03:07:44.623Z,95300.83
2022-11-05T03:10:43.330Z,95303.50
2022-11-05T03:13:22.593Z,95306.54
2022-11-05T03:15:55.713Z,95304.20
2022-11-05T03:18:43.374Z,95299.39
2022-11-05T03:21:37.657Z,95293.48
2022-11-05T03:24:34.266Z,95294.37
2022-11-05T03:27:13.568Z,95296.91
2022-11-05T03:29:49.147Z,95295.89
2022-11-05T03:32:20.744Z,95299.15
2022-11-05T03:34:56.797Z,95305.63
2022-11-05T03:37:28.704Z,95311.76
2022-11-05T03:40:00.515Z,95316.05
2022-11-05T03:42:34.673Z,95319.48
2022-11-05T03:45:08.693Z,95325.89
2022-11-05T03:47:41.177Z,95329.27
2022-11-05T03:50:59.892Z,95328.63
2022-11-05T03:53:32.298Z,95324.30
2022-11-05T03:56:10.634Z,95323.15
2022-11-05T03:58:44.204Z,95323.95
2022-11-05T04:01:12.597Z,95323.58
2022-11-05T04:03:40.495Z,95320.87
2022-11-05T04:06:29.223Z,95316.59
2022-11-05T04:09:15.854Z,95318.08
2022-11-05T04:12:02.311Z,95323.48
2022-11-05T04:14:31.163Z,95326.38
2022-11-05T04:17:09.734Z,95325.98
2022-11-05T04:20:01.980Z,95323.88
2022-11-05T04:22:54.032Z,95322.67
2022-11-05T04:25:22.839Z,95319.29
2022-11-05T04:27:51.628Z,95321.42
2022-11-05T04:30:20.590Z,95321.07
2022-11-05T04:32:58.691Z,95321.57
2022-11-05T04:35:28.987Z,95322.88
2022-11-05T04:37:57.078Z,95328.40
2022-11-05T04:40:25.944Z,95338.14
2022-11-05T04:42:55.681Z,95334.69
2022-11-05T04:45:25.445Z,95324.80
2022-11-05T04:47:53.474Z,95325.08
2022-11-05T04:50:21.912Z,95330.52
2022-11-05T04:52:49.867Z,95338.72
2022-11-05T04:55:18.033Z,95342.90
2022-11-05T04:57:51.298Z,95342.62
2022-11-05T05:00:20.891Z,95338.81
2022-11-05T05:02:49.414Z,95342.48
2022-11-05T05:05:17.779Z,95338.25
2022-11-05T05:07:45.757Z,95335.23
2022-11-05T05:10:13.634Z,95328.26
2022-11-05T05:12:41.667Z,95323.88
2022-11-05T05:15:09.723Z,95325.77
2022-11-05T05:17:37.687Z,95329.08
2022-11-05T05:20:24.502Z,95324.85
2022-11-05T05:22:55.778Z,95322.04
2022-11-05T05:25:23.851Z,95323.10
2022-11-05T05:27:51.945Z,95319.89
2022-11-05T05:30:19.869Z,95318.41
2022-11-05T05:32:47.743Z,95317.89
2022-11-05T05:35:16.040Z,95318.11
2022-11-05T05:37:44.345Z,95317.98
2022-11-05T05:40:12.244Z,95313.82
2022-11-05T05:42:43.105Z,95313.05
2022-11-05T05:45:12.792Z,95320.41
2022-11-05T05:47:40.675Z,95327.23
2022-11-05T05:50:08.681Z,95334.49
2022-11-05T05:52:36.553Z,95328.92
2022-11-05T05:55:04.854Z,95325.23
2022-11-05T05:57:34.151Z,95326.77
2022-11-05T06:00:02.145Z,95333.92
2022-11-05T06:02:40.057Z,95339.86
2022-11-05T06:05:08.407Z,95341.13
2022-11-05T06:07:37.556Z,95348.56
2022-11-05T06:10:07.238Z,95359.16
2022-11-05T06:12:35.304Z,95365.02
2022-11-05T06:15:03.986Z,95368.58
2022-11-05T06:17:33.077Z,95370.69
2022-11-05T06:20:01.041Z,95382.68
2022-11-05T06:22:28.918Z,95388.57
2022-11-05T06:24:56.754Z,95396.06
2022-11-05T06:27:24.729Z,95398.13
2022-11-05T06:29:52.561Z,95398.30
2022-11-05T06:32:20.426Z,95398.17
2022-11-05T06:34:48.544Z,95398.95
2022-11-05T06:37:16.526Z,95402.77
2022-11-05T06:39:44.686Z,95406.39
2022-11-05T06:42:18.488Z,95408.94
2022-11-05T06:44:47.269Z,95410.92
2022-11-05T06:47:15.124Z,95417.75
2022-11-05T06:49:43.009Z,95416.82
2022-11-05T06:52:11.184Z,95415.15
2022-11-05T06:54:40.185Z,95411.92
2022-11-05T06:57:12.416Z,95415.63
2022-11-05T06:59:40.758Z,95420.58
2022-11-05T07:02:12.644Z,95420.21
2022-11-05T07:04:40.567Z,95423.18
2022-11-05T07:07:08.513Z,95417.95
2022-11-05T07:09:42.678Z,95416.56
2022-11-05T07:12:10.562Z,95413.04
2022-11-05T07:14:38.438Z,95413.20
2022-11-05T07:17:06.349Z,95411.86
2022-11-05T07:19:34.311Z,95413.98
2022-11-05T07:22:02.256Z,95413.98
2022-11-05T07:24:30.193Z,95419.02
2022-11-05T07:26:58.262Z,95427.95
2022-11-05T07:29:26.137Z,95430.09
2022-11-05T07:31:54.015Z,95426.45
2022-11-05T07:34:21.886Z,95423.62
2022-11-05T07:36:49.828Z,95422.05
2022-11-05T07:39:17.728Z,95421.11
2022-11-05T07:41:45.642Z,95421.20
2022-11-05T07:44:14.481Z,95426.87
2022-11-05T07:46:42.547Z,95432.48
2022-11-05T07:49:10.480Z,95430.48
2022-11-05T07:51:38.440Z,95426.91
2022-11-05T07:54:06.456Z,95428.31
2022-11-05T07:56:34.447Z,95428.77
2022-11-05T07:59:02.696Z,95431.46
2022-11-05T08:01:30.863Z,95427.83
2022-11-05T08:03:58.977Z,95430.67
2022-11-05T08:06:26.846Z,95430.00
2022-11-05T08:08:54.797Z,95431.05
2022-11-05T08:11:22.707Z,95434.91
2022-11-05T08:13:50.571Z,95433.67
2022-11-05T08:16:18.525Z,95429.62
2022-11-05T08:18:46.995Z,95425.44
2022-11-05T08:21:15.015Z,95426.47
2022-11-05T08:23:43.081Z,95431.00
2022-11-05T08:26:10.952Z,95433.13
2022-11-05T08:28:39.001Z,95431.27
2022-11-05T08:31:06.877Z,95432.48
2022-11-05T08:33:35.071Z,95433.37
2022-11-05T08:36:04.633Z,95432.77
2022-11-05T08:38:32.653Z,95430.88
2022-11-05T08:41:00.950Z,95427.42
2022-11-05T08:43:28.873Z,95420.23
2022-11-05T08:45:56.761Z,95423.77
2022-11-05T08:48:24.748Z,95426.12
2022-11-05T08:50:52.703Z,95430.18
2022-11-05T08:53:20.696Z,95429.20
2022-11-05T08:55:50.172Z,95425.98
2022-11-05T08:58:20.230Z,95427.77
2022-11-05T09:00:49.639Z,95429.89
2022-11-05T09:03:18.045Z,95428.89
2022-11-05T09:05:46.743Z,95428.63
2022-11-05T09:08:17.101Z,95430.63
2022-11-05T09:10:47.063Z,95431.69
2022-11-05T09:13:19.391Z,95428.48
2022-11-05T09:15:49.481Z,95424.68
2022-11-05T09:18:19.035Z,95422.34
2022-11-05T09:20:47.371Z,95422.75
2022-11-05T09:23:16.273Z,95425.52
2022-11-05T09:25:44.786Z,95427.00
2022-11-05T09:28:18.329Z,95430.55
2022-11-05T09:30:48.731Z,95431.84
2022-11-05T09:33:19.000Z,95430.92
2022-11-05T09:35:47.527Z,95431.98
2022-11-05T09:38:15.450Z,95430.61
2022-11-05T09:41:01.012Z,95427.54
2022-11-05T09:43:44.686Z,95428.39
2022-11-05T09:46:19.332Z,95422.90
2022-11-05T09:48:52.358Z,95423.59
2022-11-05T09:51:24.104Z,95428.07
2022-11-05T09:53:53.582Z,95424.48
2022-11-05T09:56:26.922Z,95425.06
2022-11-05T09:59:00.537Z,95425.74
2022-11-05T10:01:35.442Z,95430.89
2022-11-05T10:04:13.165Z,95430.49
2022-11-05T10:06:48.865Z,95435.00
2022-11-05T10:09:28.141Z,95432.74
2022-11-05T10:12:06.505Z,95435.20
2022-11-05T10:14:40.531Z,95436.84
2022-11-05T10:17:25.147Z,95436.30
2022-11-05T10:20:20.670Z,95435.86
2022-11-05T10:22:58.652Z,95434.66
2022-11-05T10:25:32.054Z,95428.66
2022-11-05T10:28:00.461Z,95426.98
2022-11-05T10:30:28.379Z,95424.45
2022-11-05T10:32:59.599Z,95423.33
2022-11-05T10:35:30.809Z,95425.69
2022-11-05T10:37:58.705Z,95432.95
2022-11-05T10:40:38.762Z,95432.26
2022-11-05T10:43:15.894Z,95428.84
2022-11-05T10:45:59.775Z,95430.41
2022-11-05T10:48:34.691Z,95434.82
2022-11-05T10:51:07.206Z,95435.17
2022-11-05T10:53:38.609Z,95434.22
2022-11-05T10:56:32.480Z,95429.48
2022-11-05T10:59:00.973Z,95430.30
2022-11-05T11:01:30.380Z,95432.37
2022-11-05T11:04:32.256Z,95427.33
2022-11-05T11:07:03.723Z,95428.86
2022-11-05T11:09:35.993Z,95431.49
2022-11-05T11:12:21.746Z,95432.76
2022-11-05T11:15:12.455Z,95429.14
2022-11-05T11:17:40.854Z,95428.40
2022-11-05T11:20:17.961Z,95428.02
2022-11-05T11:23:13.000Z,95423.53
2022-11-05T11:25:47.155Z,95429.58
2022-11-05T11:28:20.251Z,95427.23
2022-11-05T11:31:04.244Z,95428.27
2022-11-05T11:33:33.841Z,95430.80
2022-11-05T11:36:02.266Z,95432.96
2022-11-05T11:38:33.038Z,95430.13
2022-11-05T11:41:30.878Z,95428.92
2022-11-05T11:44:11.513Z,95429.89
2022-11-05T11:46:40.049Z,95423.01
2022-11-05T11:49:32.688Z,95420.95
2022-11-05T11:52:04.963Z,95418.96
2022-11-05T11:54:35.070Z,95416.12
2022-11-05T11:57:03.607Z,95421.00
2022-11-05T12:00:01.816Z,95420.48
2022-11-05T12:02:28.586Z,95421.27
2022-11-05T12:05:10.388Z,95422.27
2022-11-05T12:07:44.100Z,95425.50
2022-11-05T12:10:18.148Z,95423.65
2022-11-05T12:13:01.278Z,95426.20
2022-11-05T12:15:52.039Z,95426.71
2022-11-05T12:18:27.271Z,95418.84
2022-11-05T12:21:07.438Z,95417.42
2022-11-05T12:23:44.374Z,95420.90
2022-11-05T12:26:22.313Z,95418.08
2022-11-05T12:29:17.486Z,95423.02
2022-11-05T12:32:01.567Z,95424.16
2022-11-05T12:34:35.551Z,95426.58
2022-11-05T12:37:24.938Z,95428.94
2022-11-05T12:40:14.673Z,95430.17
2022-11-05T12:43:12.110Z,95429.48
2022-11-05T12:45:45.949Z,95430.95
2022-11-05T12:48:57.109Z,95435.91
2022-11-05T12:51:51.404Z,95442.88
2022-11-05T12:54:36.157Z,95442.70
2022-11-05T12:57:05.823Z,95439.98
2022-11-05T12:59:43.888Z,95441.84
2022-11-05T13:02:33.375Z,95442.41
2022-11-05T13:05:16.479Z,95448.62
2022-11-05T13:07:54.300Z,95446.29
2022-11-05T13:10:28.174Z,95447.54
2022-11-05T13:13:02.823Z,95450.74
2022-11-05T13:15:40.231Z,95452.95
2022-11-05T13:18:16.662Z,95450.48
2022-11-05T13:20:51.220Z,95450.66
2022-11-05T13:23:27.747Z,95449.18
2022-11-05T13:26:02.532Z,95447.89
2022-11-05T13:28:43.173Z,95444.64
2022-11-05T13:31:15.110Z,95447.30
2022-11-05T13:33:46.544Z,95446.83
2022-11-05T13:36:44.767Z,95448.02
2022-11-05T13:39:26.166Z,95452.96
2022-11-05T13:42:13.082Z,95462.06
2022-11-05T13:44:41.005Z,95463.65
2022-11-05T13:47:30.663Z,95470.86
2022-11-05T13:50:20.623Z,95474.86
2022-11-05T13:53:26.296Z,95479.34
2022-11-05T13:56:03.367Z,95484.05
2022-11-05T13:59:10.066Z,95483.63
2022-11-05T14:02:18.994Z,95486.67
2022-11-05T14:05:00.704Z,95488.05
2022-11-05T14:07:33.324Z,95488.84
2022-11-05T14:10:16.666Z,95488.50
2022-11-05T14:12:49.796Z,95489.70
2022-11-05T14:15:22.178Z,95489.96
2022-11-05T14:18:04.069Z,95492.29
2022-11-05T14:20:31.957Z,95490.54
2022-11-05T14:23:24.982Z,95492.41
2022-11-05T14:26:22.531Z,95493.66
2022-11-05T14:29:11.581Z,95497.19
2022-11-05T14:32:07.679Z,95497.23
2022-11-05T14:34:43.459Z,95491.20
2022-11-05T14:37:11.889Z,95493.23
2022-11-05T14:39:40.996Z,95492.90
2022-11-05T14:42:18.302Z,95490.91
2022-11-05T14:45:24.543Z,95490.58
2022-11-05T14:48:05.320Z,95490.45
2022-11-05T14:50:39.440Z,95490.68
2022-11-05T14:53:37.573Z,95493.59
2022-11-05T14:56:19.039Z,95493.31
2022-11-05T14:58:46.973Z,95493.80
2022-11-05T15:01:15.905Z,95492.10
2022-11-05T15:04:00.995Z,95492.33
2022-11-05T15:06:36.616Z,95493.41
2022-11-05T15:09:16.164Z,95495.07
2022-11-05T15:12:04.446Z,95492.80
2022-11-05T15:14:42.419Z,95495.26
2022-11-05T15:17:21.484Z,95495.34
2022-11-05T15:19:50.744Z,95494.11
2022-11-05T15:22:29.091Z,95498.19
2022-11-05T15:24:57.418Z,95502.60
2022-11-05T15:27:46.550Z,95504.11
2022-11-05T15:30:23.028Z,95504.23
2022-11-05T15:32:51.842Z,95506.77
2022-11-05T15:35:23.589Z,95506.65
2022-11-05T15:37:57.303Z,95507.11
2022-11-05T15:40:33.212Z,95507.33
2022-11-05T15:43:19.764Z,95507.94
2022-11-05T15:46:04.963Z,95504.11
2022-11-05T15:48:33.923Z,95515.35
2022-11-05T15:51:02.209Z,95515.02
2022-11-05T15:56:34.497Z,95521.26
2022-11-05T15:59:16.111Z,95521.73
2022-11-05T16:01:51.880Z,95524.97
2022-11-05T16:04:24.679Z,95530.54
2022-11-05T16:06:56.071Z,95533.02
2022-11-05T16:09:25.958Z,95536.48
2022-11-05T16:12:11.647Z,95539.86
2022-11-05T16:14:40.494Z,95539.40
2022-11-05T16:17:20.453Z,95542.08
2022-11-05T16:19:49.616Z,95540.58
2022-11-05T16:22:18.634Z,95539.96
2022-11-05T16:24:47.223Z,95541.89
2022-11-05T16:27:19.851Z,95543.95
2022-11-05T16:29:56.547Z,95545.80
2022-11-05T16:32:31.733Z,95547.23
2022-11-05T16:35:03.020Z,95553.95
2022-11-05T16:37:39.818Z,95555.45
2022-11-05T16:40:15.455Z,95556.92
2022-11-05T16:42:45.529Z,95558.48
2022-11-05T16:45:15.528Z,95560.56
2022-11-05T16:47:44.939Z,95563.81
2022-11-05T16:50:15.060Z,95565.58
2022-11-05T16:52:45.193Z,95567.85
2022-11-05T16:55:14.913Z,95568.76
2022-11-05T16:57:46.711Z,95567.64
2022-11-05T17:00:16.927Z,95569.41
2022-11-05T17:02:45.974Z,95571.38
2022-11-05T17:05:30.965Z,95571.64
2022-11-05T17:08:00.697Z,95565.77
2022-11-05T17:10:28.764Z,95568.17
2022-11-05T17:12:57.000Z,95566.14
2022-11-05T17:15:29.638Z,95567.43
2022-11-05T17:17:59.085Z,95565.42
2022-11-05T17:20:36.482Z,95566.54
2022-11-05T17:23:19.762Z,95566.38
2022-11-05T17:26:09.812Z,95570.17
2022-11-05T17:28:38.715Z,95570.17
2022-11-05T17:31:09.171Z,95572.30
2022-11-05T17:33:37.170Z,95576.35
2022-11-05T17:36:10.740Z,95577.78
2022-11-05T17:38:39.279Z,95580.68
2022-11-05T17:41:15.797Z,95584.34
2022-11-05T17:43:44.171Z,95587.30
2022-11-05T17:46:14.631Z,95587.35
2022-11-05T17:48:42.937Z,95587.44
2022-11-05T17:51:15.202Z,95589.95
2022-11-05T17:53:44.670Z,95590.27
2022-11-05T17:56:22.156Z,95591.95
2022-11-05T17:58:55.662Z,95592.70
2022-11-05T18:01:30.330Z,95589.17
2022-11-05T18:04:02.447Z,95587.73
2022-11-05T18:06:35.338Z,95587.52
2022-11-05T18:09:05.750Z,95590.10
2022-11-05T18:11:35.527Z,95593.23
2022-11-05T18:14:03.990Z,95591.40
2022-11-05T18:16:32.166Z,95593.75
2022-11-05T18:19:00.228Z,95595.25
2022-11-05T18:21:28.396Z,95599.05
2022-11-05T18:23:56.564Z,95605.06
2022-11-05T18:26:24.453Z,95606.64
2022-11-05T18:28:52.420Z,95605.02
2022-11-05T18:31:21.913Z,95603.04
2022-11-05T18:33:50.726Z,95604.19
2022-11-05T18:36:21.204Z,95607.96
2022-11-05T18:38:49.924Z,95610.56
2022-11-05T18:41:19.169Z,95613.02
2022-11-05T18:43:47.303Z,95611.42
2022-11-05T18:46:43.101Z,95612.55
2022-11-05T18:49:04.291Z,95612.92
2022-11-05T18:51:32.728Z,95612.85
2022-11-05T18:54:00.845Z,95611.04
2022-11-05T18:56:28.957Z,95612.98
2022-11-05T18:59:22.049Z,95614.18
2022-11-05T19:01:45.599Z,95614.04
2022-11-05T19:04:14.146Z,95617.48
2022-11-05T19:06:42.687Z,95619.52
2022-11-05T19:09:12.067Z,95622.23
2022-11-05T19:11:41.030Z,95621.05
2022-11-05T19:14:09.259Z,95624.27
2022-11-05T19:16:37.282Z,95625.33
2022-11-05T19:19:08.212Z,95625.03
2022-11-05T19:21:36.075Z,95628.11
2022-11-05T19:24:04.603Z,95630.41
2022-11-05T19:26:32.923Z,95629.45
2022-11-05T19:29:03.036Z,95631.48
2022-11-05T19:31:32.388Z,95627.83
2022-11-05T19:34:03.110Z,95625.71
2022-11-05T19:36:32.888Z,95623.73
2022-11-05T19:39:04.445Z,95624.05
2022-11-05T19:41:32.284Z,95630.98
2022-11-05T19:44:01.870Z,95637.23
2022-11-05T19:46:31.046Z,95648.19
2022-11-05T19:49:02.263Z,95655.32
2022-11-05T19:51:31.817Z,95659.86
2022-11-05T19:54:01.641Z,95664.84
2022-11-05T19:56:32.130Z,95670.21
2022-11-05T19:59:00.666Z,95671.23
2022-11-05T20:01:30.068Z,95676.55
2022-11-05T20:03:59.553Z,95678.39
2022-11-05T20:06:32.070Z,95677.82
2022-11-05T20:11:54.618Z,95679.33
2022-11-05T20:14:24.894Z,95679.39
2022-11-05T20:16:53.583Z,95681.52
2022-11-05T20:19:22.813Z,95685.47
2022-11-05T20:21:50.951Z,95691.88
2022-11-05T20:24:24.694Z,95692.52
2022-11-05T20:26:55.389Z,95694.08
2022-11-05T20:29:29.093Z,95696.35
2022-11-05T20:32:02.320Z,95694.04
2022-11-05T20:34:32.071Z,95695.79
2022-11-05T20:37:00.550Z,95694.75
2022-11-05T20:39:28.426Z,95700.94
2022-11-05T20:41:56.932Z,95700.02
2022-11-05T20:44:24.899Z,95700.36
2022-11-05T20:46:52.854Z,95704.29
2022-11-05T20:49:25.166Z,95703.00
2022-11-05T20:51:54.489Z,95701.15
2022-11-05T20:54:22.616Z,95700.11
2022-11-05T20:56:51.015Z,95703.14
2022-11-05T20:59:19.586Z,95702.82
2022-11-05T21:01:47.613Z,95700.90
2022-11-05T21:04:15.621Z,95696.36
2022-11-05T21:06:43.606Z,95692.85
2022-11-05T21:09:11.508Z,95693.71
2022-11-05T21:11:57.802Z,95694.84
2022-11-05T21:14:25.704Z,95694.16
2022-11-05T21:16:53.614Z,95693.34
2022-11-05T21:19:23.929Z,95693.02
2022-11-05T21:21:51.901Z,95693.39
2022-11-05T21:24:19.819Z,95693.57
2022-11-05T21:26:50.080Z,95697.23
2022-11-05T21:29:19.149Z,95695.51
2022-11-05T21:31:47.677Z,95696.02
2022-11-05T21:34:16.944Z,95696.11
2022-11-05T21:36:45.313Z,95695.48
2022-11-05T21:39:14.048Z,95698.30
2022-11-05T21:41:42.816Z,95703.93
2022-11-05T21:44:11.284Z,95703.25
2022-11-05T21:46:39.447Z,95707.52
2022-11-05T21:49:07.455Z,95705.48
2022-11-05T21:51:53.762Z,95704.48
2022-11-05T21:54:40.098Z,95706.45
2022-11-05T21:57:33.278Z,95709.30
2022-11-05T22:00:03.852Z,95710.94
2022-11-05T22:02:32.328Z,95712.53
2022-11-05T22:05:00.479Z,95718.91
2022-11-05T22:07:37.940Z,95720.29
2022-11-05T22:10:15.809Z,95718.25
2022-11-05T22:12:44.962Z,95719.20
2022-11-05T22:15:13.782Z,95719.93
2022-11-05T22:17:46.602Z,95721.28
2022-11-05T22:20:15.937Z,95721.05
2022-11-05T22:22:44.871Z,95722.15
2022-11-05T22:25:14.414Z,95724.88
2022-11-05T22:27:44.066Z,95725.11
2022-11-05T22:30:13.788Z,95725.48
2022-11-05T22:32:42.034Z,95722.60
2022-11-05T22:35:10.429Z,95721.40
2022-11-05T22:37:38.474Z,95727.02
2022-11-05T22:40:06.941Z,95727.66
2022-11-05T22:42:34.946Z,95727.36
2022-11-05T22:45:03.319Z,95729.25
2022-11-05T22:47:31.186Z,95728.81
2022-11-05T22:49:59.412Z,95730.75
2022-11-05T22:52:27.552Z,95728.13
2022-11-05T22:54:55.556Z,95727.55
2022-11-05T22:57:23.589Z,95727.35
2022-11-05T22:59:51.532Z,95727.92
2022-11-05T23:02:19.948Z,95726.36
2022-11-05T23:04:49.620Z,95729.50
2022-11-05T23:07:36.726Z,95730.71
2022-11-05T23:10:23.381Z,95729.66
2022-11-05T23:12:53.229Z,95732.44
2022-11-05T23:15:39.475Z,95734.09
2022-11-05T23:18:28.104Z,95734.57
2022-11-05T23:21:17.953Z,95734.31
2022-11-05T23:24:05.038Z,95732.42
2022-11-05T23:26:52.208Z,95733.08
2022-11-05T23:29:21.433Z,95729.96
2022-11-05T23:32:09.017Z,95728.98
2022-11-05T23:34:37.567Z,95734.50
2022-11-05T23:37:25.246Z,95737.74
2022-11-05T23:39:53.323Z,95738.88
2022-11-05T23:42:40.225Z,95734.83
2022-11-05T23:45:27.643Z,95741.06
2022-11-05T23:48:14.787Z,95740.27
2022-11-05T23:50:46.086Z,95742.94
2022-11-05T23:53:14.045Z,95744.52
2022-11-05T23:55:42.574Z,95747.66
2022-11-05T23:58:11.032Z,95748.09
